Time;durP1;ratioP1;P1;durP2;ratioP2;P2;SDS_P1;SDS_P2;PMS_P1;PMS_P2;Temp;Humidity;BMP_temperature;BMP_pressure;BME280_temperature;BME280_humidity;BME280_pressure;Samples;Min_cycle;Max_cycle;Signal;HPM_P1;HPM_P2
2022/06/30 00:00:18;;;;;;;0.00;0.00;;;25.60;47.50;;;;;;5090723;28;20046;-77
2022/06/30 00:02:44;;;;;;;0.00;0.00;;;25.70;47.70;;;;;;5108716;28;20384;-77
2022/06/30 00:05:10;;;;;;;0.00;0.00;;;25.60;48.30;;;;;;5114704;28;20099;-77
2022/06/30 00:07:36;;;;;;;0.00;0.00;;;25.50;47.70;;;;;;5113252;27;20040;-77
2022/06/30 00:10:03;;;;;;;0.00;0.00;;;25.70;46.50;;;;;;5078404;28;20063;-77
2022/06/30 00:12:29;;;;;;;0.00;0.00;;;25.50;49.10;;;;;;5091980;28;20628;-77
2022/06/30 00:14:55;;;;;;;0.00;0.00;;;25.50;48.60;;;;;;5095663;28;20055;-77
2022/06/30 00:17:21;;;;;;;0.00;0.00;;;25.80;48.20;;;;;;5114343;28;20028;-77
2022/06/30 00:19:47;;;;;;;0.00;0.00;;;25.70;50.80;;;;;;5114587;28;20105;-77
2022/06/30 00:22:14;;;;;;;0.00;0.00;;;26.10;48.00;;;;;;5114179;28;20070;-78
2022/06/30 00:24:40;;;;;;;0.00;0.00;;;26.50;47.00;;;;;;5096336;28;20027;-78
2022/06/30 00:27:07;;;;;;;0.00;0.00;;;26.80;47.80;;;;;;5096210;28;20115;-78
2022/06/30 00:29:33;;;;;;;0.00;0.00;;;26.80;47.70;;;;;;5096261;28;20027;-78
2022/06/30 00:31:59;;;;;;;0.00;0.00;;;27.20;48.20;;;;;;5114507;28;20528;-80
2022/06/30 00:34:25;;;;;;;0.00;0.00;;;27.70;47.00;;;;;;5115342;28;20032;-83
2022/06/30 00:36:51;;;;;;;0.17;0.17;;;28.10;44.90;;;;;;5095355;28;20023;-82
2022/06/30 00:39:17;;;;;;;0.00;0.00;;;28.40;44.50;;;;;;5114787;28;20458;-82
2022/06/30 00:41:43;;;;;;;0.00;0.00;;;28.80;42.40;;;;;;5108889;27;20071;-83
2022/06/30 00:44:13;;;;;;;0.00;0.00;;;29.20;41.90;;;;;;5101889;28;20099;-83
2022/06/30 00:46:39;;;;;;;0.00;0.00;;;29.50;43.80;;;;;;5076561;28;20024;-82
2022/06/30 00:49:07;;;;;;;0.00;0.00;;;29.90;42.90;;;;;;5076795;28;20034;-82
2022/06/30 00:51:33;;;;;;;0.00;0.00;;;30.40;43.10;;;;;;5095427;28;20032;-83
2022/06/30 00:54:02;;;;;;;0.70;0.70;;;30.80;42.50;;;;;;5090548;28;20058;-83
2022/06/30 00:56:30;;;;;;;0.00;0.00;;;31.40;42.00;;;;;;5114005;28;20019;-83
2022/06/30 00:59:06;;;;;;;0.10;0.10;;;32.00;40.90;;;;;;5096680;28;20378;-83
2022/06/30 01:01:33;;;;;;;0.10;0.10;;;32.30;41.30;;;;;;5096904;28;20023;-83
2022/06/30 01:04:00;;;;;;;0.00;0.00;;;32.70;40.30;;;;;;5096458;28;20028;-84
2022/06/30 01:06:28;;;;;;;2.25;2.20;;;33.00;38.50;;;;;;5091883;28;20437;-85
2022/06/30 01:08:54;;;;;;;0.57;0.57;;;33.60;38.40;;;;;;5095726;28;20027;-84
2022/06/30 01:14:04;;;;;;;0.08;0.08;;;33.30;36.70;;;;;;5101747;28;20085;-83
2022/06/30 01:16:30;;;;;;;0.00;0.00;;;31.90;37.70;;;;;;5087014;28;20024;-84
2022/06/30 01:18:57;;;;;;;0.00;0.00;;;32.80;37.70;;;;;;5113969;28;20027;-85
2022/06/30 01:21:26;;;;;;;0.25;0.25;;;33.60;36.20;;;;;;5113717;28;20064;-81
2022/06/30 01:23:53;;;;;;;0.68;0.25;;;33.70;38.00;;;;;;5113500;28;20064;-84
2022/06/30 01:26:22;;;;;;;1.08;0.65;;;32.40;36.90;;;;;;5113645;28;20042;-83
2022/06/30 01:28:48;;;;;;;1.10;1.10;;;30.70;42.40;;;;;;5090668;28;20023;-83
2022/06/30 01:31:14;;;;;;;0.30;0.30;;;29.20;45.60;;;;;;5083797;28;20028;-83
2022/06/30 01:33:40;;;;;;;0.45;0.45;;;29.50;45.90;;;;;;5083651;28;20417;-83
2022/06/30 01:36:06;;;;;;;2.05;1.73;;;29.90;45.50;;;;;;5101923;28;20035;-84
2022/06/30 01:38:32;;;;;;;0.55;0.55;;;30.50;44.70;;;;;;5112668;28;20121;-85
2022/06/30 01:41:01;;;;;;;1.77;1.60;;;31.00;43.80;;;;;;5104462;27;20034;-84
2022/06/30 01:43:27;;;;;;;3.30;2.00;;;30.50;42.70;;;;;;5110100;28;20049;-86
2022/06/30 01:45:53;;;;;;;9.23;3.92;;;30.20;43.30;;;;;;5115235;28;20045;-83
2022/06/30 01:48:19;;;;;;;0.35;0.35;;;29.90;43.00;;;;;;5103804;27;20029;-82
2022/06/30 01:50:45;;;;;;;0.50;0.50;;;29.60;44.20;;;;;;5135694;27;20034;-82
2022/06/30 01:53:11;;;;;;;4.28;0.57;;;30.10;42.80;;;;;;5117534;27;20552;-83
2022/06/30 01:55:37;;;;;;;0.10;0.10;;;30.30;42.30;;;;;;5094794;28;20080;-86
2022/06/30 01:58:04;;;;;;;0.32;0.32;;;30.60;41.90;;;;;;5091121;28;20024;-83
2022/06/30 02:00:31;;;;;;;0.17;0.17;;;31.20;40.90;;;;;;5090672;28;20027;-85
2022/06/30 02:02:58;;;;;;;0.68;0.52;;;32.00;40.40;;;;;;5084546;28;20039;-83
2022/06/30 02:05:25;;;;;;;0.20;0.17;;;31.80;39.20;;;;;;5113496;28;20028;-83
2022/06/30 02:07:52;;;;;;;0.08;0.08;;;31.70;40.00;;;;;;5094410;28;20028;-84
2022/06/30 02:10:21;;;;;;;2.63;1.50;;;32.10;40.40;;;;;;5113617;28;20035;-84
2022/06/30 02:12:48;;;;;;;17.67;1.08;;;32.30;39.40;;;;;;5097155;28;20308;-84
2022/06/30 02:15:19;;;;;;;0.00;0.00;;;32.10;39.40;;;;;;5098781;28;20050;-85
2022/06/30 02:17:47;;;;;;;0.00;0.00;;;32.40;38.80;;;;;;5104380;27;20606;-83
2022/06/30 02:20:14;;;;;;;6.88;3.65;;;32.00;39.60;;;;;;5115283;28;20024;-83
2022/06/30 02:22:42;;;;;;;0.98;0.52;;;32.30;41.80;;;;;;5095108;28;20578;-83
2022/06/30 02:25:09;;;;;;;0.43;0.43;;;32.30;42.00;;;;;;5109063;28;20023;-85
2022/06/30 02:27:35;;;;;;;0.10;0.10;;;32.60;40.70;;;;;;5103995;28;20034;-84
2022/06/30 02:30:02;;;;;;;0.00;0.00;;;33.20;40.50;;;;;;5090707;28;20043;-85
2022/06/30 02:32:28;;;;;;;0.25;0.25;;;32.60;41.60;;;;;;5093595;28;20045;-85
2022/06/30 02:34:55;;;;;;;0.55;0.55;;;32.80;41.10;;;;;;5105158;28;20039;-85
2022/06/30 02:37:21;;;;;;;2.20;1.42;;;32.70;40.90;;;;;;5096387;28;20031;-88
2022/06/30 02:39:48;;;;;;;1.58;1.10;;;32.80;40.70;;;;;;5113156;28;20104;-89
2022/06/30 02:42:14;;;;;;;0.30;0.30;;;32.40;41.80;;;;;;5090253;28;20032;-87
2022/06/30 02:44:40;;;;;;;0.17;0.17;;;32.30;42.10;;;;;;5103719;28;20031;-89
2022/06/30 02:47:06;;;;;;;2.17;1.38;;;32.80;41.10;;;;;;5108041;28;20028;-88
2022/06/30 02:49:32;;;;;;;0.57;0.57;;;32.80;40.50;;;;;;5086897;28;20030;-87
2022/06/30 02:51:58;;;;;;;0.40;0.40;;;32.60;41.10;;;;;;5101681;28;20481;-83
2022/06/30 02:54:24;;;;;;;5.18;2.20;;;32.70;40.70;;;;;;5111324;28;20494;-79
2022/06/30 02:56:50;;;;;;;2.70;2.47;;;32.50;41.00;;;;;;5101104;28;20447;-81
2022/06/30 02:59:16;;;;;;;4.28;2.10;;;32.30;41.30;;;;;;5108869;27;20085;-78
2022/06/30 03:01:42;;;;;;;5.55;1.02;;;32.50;41.20;;;;;;5100621;28;20485;-80
2022/06/30 03:04:08;;;;;;;16.27;2.13;;;32.70;41.00;;;;;;5099256;28;20111;-81
2022/06/30 03:06:35;;;;;;;12.45;3.28;;;32.70;40.60;;;;;;5103484;27;20102;-79
2022/06/30 03:09:02;;;;;;;3.47;1.15;;;32.80;41.20;;;;;;5100413;27;20020;-81
2022/06/30 03:11:29;;;;;;;7.72;2.17;;;33.00;40.20;;;;;;5084757;28;20118;-80
2022/06/30 03:13:55;;;;;;;0.00;0.00;;;33.50;38.70;;;;;;5100144;27;20032;-81
2022/06/30 03:16:21;;;;;;;0.03;0.00;;;33.60;40.00;;;;;;5080923;28;20040;-81
2022/06/30 03:18:52;;;;;;;16.88;2.10;;;34.30;38.50;;;;;;5082678;28;20123;-81
2022/06/30 03:21:20;;;;;;;7.47;1.92;;;34.70;36.50;;;;;;5100199;28;20113;-81
2022/06/30 03:23:46;;;;;;;6.32;5.03;;;34.60;36.80;;;;;;5101760;28;20012;-81
2022/06/30 03:26:21;;;;;;;3.70;1.50;;;34.80;36.10;;;;;;5102910;28;20024;-81
2022/06/30 03:28:47;;;;;;;0.00;0.00;;;34.60;35.50;;;;;;5101578;28;20032;-76
2022/06/30 03:31:13;;;;;;;0.10;0.10;;;35.10;35.70;;;;;;5109227;27;20082;-78
2022/06/30 03:33:39;;;;;;;3.78;3.00;;;35.50;34.50;;;;;;5090979;28;20110;-77
2022/06/30 03:36:05;;;;;;;1.25;0.40;;;35.30;34.90;;;;;;5112891;28;20145;-77
2022/06/30 03:38:31;;;;;;;6.45;0.68;;;35.30;35.10;;;;;;5101741;28;20020;-76
2022/06/30 03:40:57;;;;;;;1.48;1.25;;;35.30;34.70;;;;;;5104350;28;20036;-78
2022/06/30 03:43:23;;;;;;;1.40;1.23;;;35.40;34.90;;;;;;5114767;27;20028;-76
2022/06/30 03:45:49;;;;;;;1.90;1.77;;;35.70;35.00;;;;;;5096778;28;20028;-79
2022/06/30 03:48:15;;;;;;;0.38;0.38;;;35.90;34.40;;;;;;5119862;27;20024;-78
2022/06/30 03:50:41;;;;;;;0.00;0.00;;;36.20;33.80;;;;;;5127961;27;20562;-76
2022/06/30 03:53:07;;;;;;;0.13;0.10;;;36.60;34.10;;;;;;5113988;27;20504;-79
2022/06/30 03:55:33;;;;;;;7.47;1.35;;;37.20;33.00;;;;;;5129343;27;20110;-77
2022/06/30 03:58:00;;;;;;;0.08;0.08;;;37.40;32.80;;;;;;5131909;27;20023;-77
2022/06/30 04:00:26;;;;;;;0.52;0.43;;;37.00;33.30;;;;;;5130943;27;20053;-78
2022/06/30 04:02:52;;;;;;;5.68;4.85;;;37.00;33.50;;;;;;5112557;27;20120;-79
2022/06/30 04:05:18;;;;;;;0.00;0.00;;;36.80;33.00;;;;;;5118455;28;20070;-79
2022/06/30 04:07:46;;;;;;;2.78;2.08;;;36.70;34.50;;;;;;5111371;28;20043;-81
2022/06/30 04:10:13;;;;;;;5.63;1.65;;;36.90;33.40;;;;;;5087089;28;20034;-81
2022/06/30 04:12:40;;;;;;;2.25;1.80;;;36.80;34.00;;;;;;5099397;27;20019;-79
2022/06/30 04:15:07;;;;;;;0.00;0.00;;;36.70;33.40;;;;;;5093923;27;20059;-78
2022/06/30 04:17:33;;;;;;;0.00;0.00;;;36.70;33.90;;;;;;5081476;28;20508;-77
2022/06/30 04:20:01;;;;;;;1.45;0.45;;;36.80;32.10;;;;;;5101352;28;20020;-77
2022/06/30 04:22:27;;;;;;;0.22;0.22;;;36.80;29.90;;;;;;5107471;28;20015;-77
2022/06/30 04:24:54;;;;;;;7.68;1.35;;;36.80;30.30;;;;;;5084860;28;20023;-78
2022/06/30 04:27:21;;;;;;;4.50;1.65;;;36.70;29.70;;;;;;5105570;27;20020;-77
2022/06/30 04:29:47;;;;;;;1.98;1.08;;;36.40;30.40;;;;;;5086936;28;20023;-78
2022/06/30 04:34:57;;;;;;;5.38;1.40;;;36.30;30.00;;;;;;5122396;28;20203;-77
2022/06/30 04:37:23;;;;;;;0.30;0.22;;;36.40;31.00;;;;;;5122238;27;20028;-77
2022/06/30 04:41:23;;;;;;;0.55;0.50;;;36.40;32.50;;;;;;5112264;28;20020;-79
2022/06/30 04:42:35;;;;;;;0.10;0.10;;;36.30;33.80;;;;;;5107986;28;20028;-77
2022/06/30 04:45:01;;;;;;;0.25;0.25;;;36.50;33.70;;;;;;5111774;27;20024;-77
2022/06/30 04:47:27;;;;;;;0.30;0.30;;;36.30;34.30;;;;;;5102695;28;20024;-79
2022/06/30 04:49:54;;;;;;;0.00;0.00;;;36.20;35.40;;;;;;5104080;27;20362;-78
2022/06/30 04:52:20;;;;;;;0.73;0.73;;;36.10;37.10;;;;;;5103110;27;20028;-76
2022/06/30 04:54:46;;;;;;;1.38;1.13;;;36.10;37.20;;;;;;5102534;27;20020;-77
2022/06/30 04:57:12;;;;;;;2.38;2.25;;;35.90;37.30;;;;;;5108589;27;20546;-79
2022/06/30 04:59:38;;;;;;;0.35;0.15;;;36.10;38.20;;;;;;5102477;28;20097;-80
2022/06/30 05:02:05;;;;;;;0.10;0.10;;;36.40;37.10;;;;;;5108452;27;20023;-79
2022/06/30 05:04:31;;;;;;;1.02;1.02;;;36.60;37.70;;;;;;5089623;28;20024;-79
2022/06/30 05:06:57;;;;;;;0.10;0.10;;;36.60;38.20;;;;;;5104831;27;20035;-78
2022/06/30 05:09:23;;;;;;;0.00;0.00;;;36.80;38.60;;;;;;5106557;28;20374;-80
2022/06/30 05:11:50;;;;;;;0.20;0.20;;;36.70;38.40;;;;;;5108980;28;20409;-81
2022/06/30 05:14:16;;;;;;;0.25;0.22;;;36.60;38.20;;;;;;5108084;28;20494;-78
2022/06/30 05:16:43;;;;;;;0.00;0.00;;;36.60;38.20;;;;;;5105736;28;20032;-78
2022/06/30 05:19:09;;;;;;;0.20;0.20;;;36.60;37.70;;;;;;5105956;28;20047;-78
2022/06/30 05:21:35;;;;;;;0.00;0.00;;;36.60;36.60;;;;;;5106809;28;20056;-79
2022/06/30 05:26:45;;;;;;;0.10;0.10;;;36.60;34.50;;;;;;5101079;27;20393;-80
2022/06/30 05:29:11;;;;;;;0.55;0.55;;;36.70;34.50;;;;;;5105459;27;20024;-80
2022/06/30 05:31:37;;;;;;;0.00;0.00;;;36.60;32.90;;;;;;5083735;28;20032;-80
2022/06/30 05:34:03;;;;;;;8.35;4.55;;;36.60;31.40;;;;;;5083606;28;20070;-78
2022/06/30 05:36:29;;;;;;;1.52;1.42;;;36.40;31.80;;;;;;5106924;27;20454;-80
2022/06/30 05:38:55;;;;;;;1.00;0.43;;;36.40;31.10;;;;;;5104443;27;20110;-79
2022/06/30 05:41:21;;;;;;;0.38;0.38;;;36.60;30.40;;;;;;5095534;27;20069;-80
2022/06/30 05:43:47;;;;;;;8.48;1.17;;;36.40;30.00;;;;;;5098649;27;20059;-77
2022/06/30 05:46:13;;;;;;;0.32;0.22;;;36.50;30.00;;;;;;5099546;27;20099;-79
2022/06/30 05:48:39;;;;;;;2.05;1.95;;;36.30;29.80;;;;;;5103799;28;20078;-81
2022/06/30 05:51:05;;;;;;;49.38;1.83;;;36.40;29.30;;;;;;5097943;28;20461;-80
2022/06/30 05:53:32;;;;;;;2.28;2.08;;;36.70;29.30;;;;;;5088576;28;20094;-79
2022/06/30 05:55:58;;;;;;;1.85;1.27;;;36.20;29.80;;;;;;5082792;27;20028;-80
2022/06/30 05:58:25;;;;;;;0.00;0.00;;;36.30;30.80;;;;;;5099982;27;20496;-80
2022/06/30 06:00:51;;;;;;;0.10;0.10;;;36.50;29.80;;;;;;5106445;28;20102;-80
2022/06/30 06:03:17;;;;;;;0.22;0.22;;;36.80;29.60;;;;;;5097712;28;20030;-79
2022/06/30 06:05:43;;;;;;;0.88;0.73;;;36.70;29.60;;;;;;5086596;28;20114;-80
2022/06/30 06:08:12;;;;;;;0.00;0.00;;;36.60;30.00;;;;;;5106105;28;20027;-80
2022/06/30 06:10:38;;;;;;;0.00;0.00;;;36.40;30.30;;;;;;5105468;28;20802;-80
2022/06/30 06:13:05;;;;;;;2.67;2.47;;;36.50;30.00;;;;;;5096491;27;20390;-79
2022/06/30 06:15:32;;;;;;;0.55;0.47;;;36.60;30.10;;;;;;5105095;28;20087;-78
2022/06/30 06:18:03;;;;;;;0.55;0.50;;;36.80;29.90;;;;;;5078364;28;20028;-81
2022/06/30 06:20:30;;;;;;;2.20;1.75;;;36.60;29.90;;;;;;5100131;28;20024;-79
2022/06/30 06:22:56;;;;;;;0.40;0.40;;;36.80;30.10;;;;;;5101391;28;20109;-79
2022/06/30 06:25:22;;;;;;;0.25;0.20;;;36.80;29.80;;;;;;5086830;28;20440;-79
2022/06/30 06:30:33;;;;;;;0.00;0.00;;;36.80;30.20;;;;;;5103767;28;20034;-78
2022/06/30 06:33:00;;;;;;;0.43;0.40;;;36.90;30.70;;;;;;5092738;28;20023;-81
2022/06/30 06:35:26;;;;;;;0.50;0.38;;;37.10;31.50;;;;;;5088995;28;20039;-79
2022/06/30 06:37:52;;;;;;;3.40;1.45;;;36.90;31.00;;;;;;5093030;28;20020;-82
2022/06/30 06:40:18;;;;;;;0.63;0.45;;;36.90;30.90;;;;;;5078861;28;20419;-80
2022/06/30 06:42:44;;;;;;;0.47;0.45;;;36.80;31.30;;;;;;5095467;28;20545;-80
2022/06/30 06:45:11;;;;;;;1.92;1.05;;;36.50;31.80;;;;;;5098445;28;20106;-80
2022/06/30 06:47:37;;;;;;;0.00;0.00;;;36.50;32.20;;;;;;5079148;28;20061;-77
2022/06/30 06:50:04;;;;;;;0.47;0.40;;;36.40;32.50;;;;;;5102950;28;20033;-81
2022/06/30 06:52:30;;;;;;;0.32;0.28;;;36.40;32.90;;;;;;5085779;28;20050;-78
2022/06/30 06:54:56;;;;;;;0.90;0.90;;;36.70;32.80;;;;;;5080634;28;20521;-80
2022/06/30 06:57:22;;;;;;;0.10;0.10;;;36.80;32.70;;;;;;5081928;28;20020;-81
2022/06/30 06:59:50;;;;;;;0.10;0.10;;;36.80;32.50;;;;;;5105183;28;20102;-80
2022/06/30 07:02:16;;;;;;;6.63;6.18;;;36.80;32.90;;;;;;5075072;28;20031;-79
2022/06/30 07:04:42;;;;;;;0.00;0.00;;;36.60;33.30;;;;;;5105924;28;20363;-79
2022/06/30 07:07:08;;;;;;;2.97;1.70;;;36.80;33.20;;;;;;5082499;28;20039;-78
2022/06/30 07:09:34;;;;;;;0.20;0.20;;;37.00;33.20;;;;;;5079819;28;20031;-79
2022/06/30 07:12:00;;;;;;;0.68;0.30;;;36.90;33.10;;;;;;5100522;28;20134;-78
2022/06/30 07:14:26;;;;;;;50.88;2.47;;;37.20;32.60;;;;;;5091779;28;20112;-79
2022/06/30 07:16:52;;;;;;;1.80;1.73;;;37.20;32.40;;;;;;5075977;28;20028;-76
2022/06/30 07:19:19;;;;;;;0.43;0.43;;;37.20;32.70;;;;;;5086274;28;20697;-79
2022/06/30 07:21:45;;;;;;;3.15;0.95;;;37.20;33.00;;;;;;5076773;28;20865;-76
2022/06/30 07:24:11;;;;;;;0.10;0.10;;;37.10;33.30;;;;;;5084937;28;20483;-77
2022/06/30 07:26:37;;;;;;;0.10;0.10;;;37.30;33.10;;;;;;5086451;28;20020;-76
2022/06/30 07:29:03;;;;;;;0.45;0.22;;;37.50;32.60;;;;;;5083530;28;20033;-75
2022/06/30 07:31:29;;;;;;;0.20;0.20;;;37.40;33.40;;;;;;5066834;28;20063;-76
2022/06/30 07:33:55;;;;;;;0.45;0.35;;;37.10;33.60;;;;;;5058680;28;20035;-75
2022/06/30 07:36:21;;;;;;;9.73;1.48;;;36.90;33.60;;;;;;5087647;28;20020;-75
2022/06/30 07:38:49;;;;;;;0.52;0.52;;;37.00;33.10;;;;;;5094405;28;20036;-76
2022/06/30 07:41:16;;;;;;;0.50;0.45;;;37.00;33.00;;;;;;5061415;28;21435;-76
2022/06/30 07:43:43;;;;;;;15.07;1.30;;;36.90;33.20;;;;;;5063875;28;20020;-75
2022/06/30 07:46:09;;;;;;;0.80;0.75;;;36.90;33.70;;;;;;5083333;28;20099;-74
2022/06/30 07:48:35;;;;;;;0.35;0.35;;;37.20;32.60;;;;;;5066025;28;20036;-76
2022/06/30 07:51:02;;;;;;;2.45;2.25;;;37.30;31.90;;;;;;5084045;28;20039;-74
2022/06/30 07:53:28;;;;;;;0.45;0.45;;;36.90;32.80;;;;;;5073050;28;20111;-73
2022/06/30 07:55:54;;;;;;;0.10;0.10;;;37.10;31.70;;;;;;5081279;28;20111;-74
2022/06/30 07:58:19;;;;;;;0.20;0.20;;;37.00;32.00;;;;;;5078987;28;20020;-75
2022/06/30 08:00:46;;;;;;;0.65;0.60;;;36.50;32.10;;;;;;5081285;28;20055;-76
2022/06/30 08:03:12;;;;;;;0.85;0.73;;;36.80;32.40;;;;;;5071535;28;20082;-73
2022/06/30 08:05:38;;;;;;;6.00;0.20;;;37.10;31.80;;;;;;5082559;28;20040;-73
2022/06/30 08:08:04;;;;;;;3.72;3.40;;;37.10;31.80;;;;;;5078848;28;20505;-74
2022/06/30 08:10:30;;;;;;;0.68;0.52;;;37.40;31.30;;;;;;5082719;28;20032;-75
2022/06/30 08:12:56;;;;;;;0.10;0.10;;;37.40;30.70;;;;;;5086365;28;20039;-74
2022/06/30 08:15:22;;;;;;;0.80;0.63;;;37.20;30.80;;;;;;5098217;28;20044;-74
2022/06/30 08:17:48;;;;;;;1.45;0.98;;;36.80;31.40;;;;;;5101571;28;20099;-73
2022/06/30 08:20:14;;;;;;;33.33;13.23;;;36.90;31.20;;;;;;5093344;28;20135;-72
2022/06/30 08:22:41;;;;;;;1.65;1.02;;;36.30;31.00;;;;;;5107202;27;20097;-72
2022/06/30 08:25:07;;;;;;;0.50;0.30;;;36.10;31.50;;;;;;5086729;28;20392;-72
2022/06/30 08:27:33;;;;;;;3.78;3.17;;;36.30;32.10;;;;;;5104447;27;20020;-72
2022/06/30 08:29:59;;;;;;;80.78;4.63;;;35.80;32.30;;;;;;5102060;28;20034;-72
2022/06/30 08:32:25;;;;;;;19.25;2.03;;;36.00;31.80;;;;;;5104806;28;20098;-72
2022/06/30 08:34:51;;;;;;;4.30;0.75;;;36.00;31.80;;;;;;5109318;27;20019;-73
2022/06/30 08:37:17;;;;;;;21.02;2.05;;;36.00;32.20;;;;;;5104221;27;20019;-74
2022/06/30 08:42:30;;;;;;;21.23;13.25;;;36.30;32.50;;;;;;5104451;28;20520;-75
2022/06/30 08:45:18;;;;;;;0.00;0.00;;;36.30;31.60;;;;;;5085215;28;20359;-76
2022/06/30 08:47:48;;;;;;;17.77;1.55;;;36.10;32.30;;;;;;5102240;28;20030;-73
2022/06/30 08:50:16;;;;;;;4.82;0.40;;;36.00;31.70;;;;;;5099136;27;20099;-73
2022/06/30 08:53:03;;;;;;;2.35;0.85;;;35.90;31.50;;;;;;5087984;28;20470;-72
2022/06/30 08:55:32;;;;;;;37.38;2.58;;;36.20;31.50;;;;;;5104814;27;20031;-74
2022/06/30 08:58:02;;;;;;;1.45;0.60;;;36.40;31.10;;;;;;5098991;28;20024;-78
2022/06/30 09:00:29;;;;;;;3.47;0.80;;;36.30;31.90;;;;;;5092208;28;20374;-76
2022/06/30 09:02:55;;;;;;;0.95;0.95;;;36.20;32.10;;;;;;5082043;28;20286;-77
2022/06/30 09:05:21;;;;;;;0.03;0.03;;;36.40;31.50;;;;;;5083724;27;20019;-78
2022/06/30 09:07:50;;;;;;;0.30;0.30;;;36.40;31.00;;;;;;5101052;27;20016;-78
2022/06/30 09:10:16;;;;;;;5.43;0.90;;;36.50;30.90;;;;;;5109800;27;20016;-75
2022/06/30 09:13:00;;;;;;;0.32;0.32;;;36.50;31.00;;;;;;5098290;27;20024;-79
2022/06/30 09:15:32;;;;;;;10.52;1.75;;;36.30;31.20;;;;;;5080170;28;20052;-76
2022/06/30 09:18:00;;;;;;;0.10;0.10;;;36.20;31.20;;;;;;5108511;27;20073;-76
2022/06/30 09:20:40;;;;;;;0.43;0.43;;;36.30;30.70;;;;;;5104033;28;20484;-77
2022/06/30 09:23:28;;;;;;;0.40;0.25;;;36.20;30.90;;;;;;5100760;28;20164;-77
2022/06/30 09:25:56;;;;;;;1.65;0.70;;;35.60;31.70;;;;;;5086829;28;20047;-76
2022/06/30 09:28:40;;;;;;;3.60;3.50;;;35.70;31.80;;;;;;5097512;28;20077;-76
2022/06/30 09:31:07;;;;;;;0.75;0.75;;;36.00;32.00;;;;;;5095371;28;20024;-74
2022/06/30 09:33:35;;;;;;;0.13;0.13;;;36.30;31.70;;;;;;5104972;27;20055;-75
2022/06/30 09:36:19;;;;;;;0.22;0.22;;;36.40;30.60;;;;;;5080569;28;20073;-76
2022/06/30 09:39:05;;;;;;;0.00;0.00;;;36.30;30.70;;;;;;5103605;27;20027;-76
2022/06/30 09:41:34;;;;;;;1.98;1.77;;;35.70;31.50;;;;;;5103379;28;20080;-77
2022/06/30 09:44:04;;;;;;;1.25;0.30;;;35.80;31.60;;;;;;5101695;28;20032;-77
2022/06/30 09:46:30;;;;;;;0.00;0.00;;;36.00;30.90;;;;;;5096882;27;20470;-77
2022/06/30 09:48:56;;;;;;;0.00;0.00;;;35.90;30.90;;;;;;5080576;28;20023;-76
2022/06/30 09:51:22;;;;;;;1.77;1.75;;;35.90;30.70;;;;;;5099991;28;20114;-75
2022/06/30 09:54:10;;;;;;;0.32;0.10;;;36.10;30.80;;;;;;5101815;27;20088;-77
2022/06/30 09:56:36;;;;;;;2.85;2.63;;;36.20;31.50;;;;;;5086839;28;20023;-75
2022/06/30 09:59:06;;;;;;;1.70;0.52;;;35.90;31.60;;;;;;5103027;27;20019;-76
2022/06/30 10:01:58;;;;;;;0.00;0.00;;;36.20;31.10;;;;;;5084378;28;20054;-76
2022/06/30 10:04:26;;;;;;;0.00;0.00;;;36.30;30.80;;;;;;5095526;28;20011;-76
2022/06/30 10:06:53;;;;;;;0.05;0.05;;;36.20;31.30;;;;;;5106210;27;20062;-76
2022/06/30 10:09:19;;;;;;;2.80;1.10;;;36.10;31.90;;;;;;5102767;27;20020;-78
2022/06/30 10:11:47;;;;;;;0.20;0.20;;;35.80;31.80;;;;;;5097775;28;20028;-76
2022/06/30 10:14:15;;;;;;;0.10;0.10;;;35.70;31.10;;;;;;5098669;28;20024;-76
2022/06/30 10:16:43;;;;;;;0.20;0.20;;;35.70;31.00;;;;;;5096866;28;20024;-78
2022/06/30 10:19:13;;;;;;;1.77;1.67;;;35.70;31.10;;;;;;5098510;28;20031;-79
2022/06/30 10:21:40;;;;;;;0.20;0.20;;;35.50;31.10;;;;;;5103762;28;20054;-79
2022/06/30 10:24:08;;;;;;;0.10;0.10;;;35.40;31.50;;;;;;5082451;28;20027;-81
2022/06/30 10:29:19;;;;;;;0.20;0.20;;;34.90;32.00;;;;;;5137110;27;20076;-85
2022/06/30 10:31:54;;;;;;;3.13;2.17;;;35.00;31.80;;;;;;5117721;28;20019;-82
2022/06/30 10:34:26;;;;;;;0.00;0.00;;;35.20;31.10;;;;;;5104576;28;20492;-82
2022/06/30 10:37:07;;;;;;;0.73;0.43;;;35.00;30.60;;;;;;5110665;28;20507;-82
2022/06/30 10:40:13;;;;;;;4.93;4.45;;;35.00;31.10;;;;;;5107629;28;20414;-82
2022/06/30 10:42:45;;;;;;;7.45;1.08;;;35.20;30.80;;;;;;5085732;28;20035;-80
2022/06/30 10:45:26;;;;;;;0.00;0.00;;;35.30;30.60;;;;;;5103314;28;20023;-80
2022/06/30 10:48:05;;;;;;;1.73;0.85;;;35.20;30.40;;;;;;5091316;28;20023;-82
2022/06/30 10:50:43;;;;;;;0.57;0.35;;;35.10;30.60;;;;;;5080681;28;20038;-83
2022/06/30 10:53:15;;;;;;;1.55;1.10;;;35.00;29.90;;;;;;5103330;28;20059;-81
2022/06/30 10:55:48;;;;;;;0.00;0.00;;;34.90;30.10;;;;;;5106558;28;20031;-79
2022/06/30 10:58:15;;;;;;;0.85;0.10;;;35.10;30.40;;;;;;5113232;28;20023;-79
2022/06/30 11:01:04;;;;;;;0.15;0.10;;;35.10;30.50;;;;;;5094717;28;20028;-83
2022/06/30 11:03:34;;;;;;;0.00;0.00;;;34.90;30.40;;;;;;5093278;28;20019;-79
2022/06/30 11:06:05;;;;;;;6.55;1.00;;;34.80;30.70;;;;;;5106355;28;20020;-78
2022/06/30 11:11:24;;;;;;;0.47;0.40;;;34.80;31.40;;;;;;5100453;28;20110;-78
2022/06/30 11:14:14;;;;;;;5.93;0.25;;;34.90;31.40;;;;;;5089213;28;20047;-81
2022/06/30 11:16:40;;;;;;;7.00;2.03;;;34.90;31.30;;;;;;5089073;28;20031;-79
2022/06/30 11:19:22;;;;;;;0.30;0.30;;;34.50;31.80;;;;;;5074907;28;20035;-80
2022/06/30 11:21:48;;;;;;;0.00;0.00;;;34.20;31.20;;;;;;5083524;28;20040;-74
2022/06/30 11:24:16;;;;;;;14.40;3.05;;;34.20;31.50;;;;;;5074532;28;20032;-74
2022/06/30 11:29:29;;;;;;;1.65;0.50;;;34.60;30.60;;;;;;5090022;28;20477;-75
2022/06/30 11:32:00;;;;;;;0.13;0.13;;;34.50;32.00;;;;;;5094484;28;20517;-74
2022/06/30 11:34:28;;;;;;;25.85;4.60;;;34.50;31.90;;;;;;5084731;28;20047;-75
2022/06/30 11:36:54;;;;;;;0.13;0.13;;;34.50;31.10;;;;;;5069259;28;20032;-77
2022/06/30 11:39:21;;;;;;;0.25;0.15;;;34.20;31.00;;;;;;5089501;28;20043;-78
2022/06/30 11:41:56;;;;;;;0.00;0.00;;;33.90;30.70;;;;;;5076942;28;20029;-77
2022/06/30 11:44:38;;;;;;;0.00;0.00;;;34.00;31.10;;;;;;5085405;28;20531;-76
2022/06/30 11:47:08;;;;;;;0.00;0.00;;;34.00;30.90;;;;;;5100035;27;20036;-76
2022/06/30 11:49:54;;;;;;;8.93;1.45;;;34.00;31.40;;;;;;5064655;28;20075;-76
2022/06/30 11:52:23;;;;;;;0.00;0.00;;;34.00;31.70;;;;;;5087907;28;20030;-76
2022/06/30 11:54:56;;;;;;;0.47;0.47;;;34.10;31.10;;;;;;5089609;28;20036;-76
2022/06/30 11:57:24;;;;;;;0.00;0.00;;;34.00;30.80;;;;;;5082274;28;20089;-77
2022/06/30 11:59:54;;;;;;;0.00;0.00;;;34.00;30.80;;;;;;5069607;28;20066;-76
2022/06/30 12:02:20;;;;;;;0.20;0.20;;;34.00;31.10;;;;;;5091421;28;20023;-76
2022/06/30 12:04:52;;;;;;;0.00;0.00;;;33.80;31.20;;;;;;5080811;28;20021;-76
2022/06/30 12:07:18;;;;;;;0.00;0.00;;;33.60;31.70;;;;;;5085052;28;20040;-75
2022/06/30 12:09:45;;;;;;;0.47;0.47;;;33.70;32.10;;;;;;5072033;28;20103;-75
2022/06/30 12:12:18;;;;;;;0.00;0.00;;;33.50;32.10;;;;;;5094517;28;20024;-78
2022/06/30 12:14:46;;;;;;;0.00;0.00;;;33.50;32.20;;;;;;5095317;28;20127;-73
2022/06/30 12:17:13;;;;;;;0.20;0.20;;;33.40;32.40;;;;;;5106368;27;20035;-74
2022/06/30 12:19:43;;;;;;;0.00;0.00;;;33.40;32.50;;;;;;5091728;28;20385;-75
2022/06/30 12:22:10;;;;;;;0.00;0.00;;;33.30;33.00;;;;;;5105741;27;20525;-77
2022/06/30 12:24:38;;;;;;;1.08;1.08;;;33.30;32.40;;;;;;5110135;27;20027;-77
2022/06/30 12:27:05;;;;;;;0.10;0.10;;;33.20;32.70;;;;;;5110956;27;20024;-78
2022/06/30 12:29:31;;;;;;;2.08;1.98;;;33.30;32.40;;;;;;5098151;27;20389;-75
2022/06/30 12:32:06;;;;;;;9.18;1.10;;;33.20;32.80;;;;;;5087870;28;20110;-76
2022/06/30 12:34:47;;;;;;;0.00;0.00;;;33.30;32.90;;;;;;5105567;28;20028;-76
2022/06/30 12:37:14;;;;;;;0.00;0.00;;;33.40;32.60;;;;;;5081846;28;20075;-77
2022/06/30 12:39:45;;;;;;;0.10;0.10;;;33.60;32.60;;;;;;5103010;28;20017;-77
2022/06/30 12:42:11;;;;;;;0.00;0.00;;;33.60;33.20;;;;;;5097127;28;20496;-77
2022/06/30 12:44:40;;;;;;;0.00;0.00;;;33.60;32.80;;;;;;5097334;28;20080;-75
2022/06/30 12:47:10;;;;;;;0.00;0.00;;;33.70;33.10;;;;;;5089198;28;20127;-76
2022/06/30 12:49:38;;;;;;;0.00;0.00;;;33.70;33.10;;;;;;5088172;27;20058;-77
2022/06/30 12:52:16;;;;;;;0.15;0.00;;;33.70;33.10;;;;;;5088473;28;20038;-76
2022/06/30 12:54:57;;;;;;;0.00;0.00;;;33.70;33.10;;;;;;5102728;28;20020;-81
2022/06/30 12:57:25;;;;;;;0.00;0.00;;;33.50;33.20;;;;;;5102930;28;20123;-75
2022/06/30 12:59:56;;;;;;;0.00;0.00;;;33.50;33.60;;;;;;5110374;27;20102;-78
2022/06/30 13:02:37;;;;;;;0.00;0.00;;;33.50;33.70;;;;;;5120396;27;20410;-77
2022/06/30 13:05:04;;;;;;;0.00;0.00;;;33.60;33.80;;;;;;5116163;27;20496;-78
2022/06/30 13:07:30;;;;;;;0.00;0.00;;;33.60;33.90;;;;;;5116606;27;20023;-75
2022/06/30 13:09:56;;;;;;;0.00;0.00;;;33.60;33.80;;;;;;5098954;28;20032;-75
2022/06/30 13:12:22;;;;;;;5.63;0.43;;;33.60;33.80;;;;;;5081259;28;20474;-76